createdAt,value
2022-10-08T00:01:14.047Z,99.9
2022-10-08T00:03:17.502Z,99.9
2022-10-08T00:07:27.680Z,99.9
2022-10-08T00:09:31.216Z,99.9
2022-10-08T00:11:34.745Z,99.9
2022-10-08T00:13:38.334Z,99.9
2022-10-08T00:15:41.842Z,99.9
2022-10-08T00:17:45.375Z,99.9
2022-10-08T00:19:48.900Z,99.9
2022-10-08T00:21:55.487Z,99.9
2022-10-08T00:23:59.039Z,99.9
2022-10-08T00:26:02.584Z,99.9
2022-10-08T00:28:06.158Z,99.9
2022-10-08T00:30:09.644Z,99.9
2022-10-08T00:38:26.887Z,99.9
2022-10-08T00:41:33.743Z,99.9
2022-10-08T00:43:37.281Z,99.9
2022-10-08T00:45:40.899Z,99.9
2022-10-08T00:47:44.351Z,99.9
2022-10-08T00:49:50.981Z,99.9
2022-10-08T00:51:54.494Z,99.9
2022-10-08T00:53:57.994Z,99.9
2022-10-08T00:56:01.555Z,99.9
2022-10-08T00:58:05.096Z,99.9
2022-10-08T01:00:08.634Z,99.9
2022-10-08T01:02:12.201Z,99.9
2022-10-08T01:04:18.795Z,99.9
2022-10-08T01:06:22.295Z,99.9
2022-10-08T01:08:25.834Z,99.9
2022-10-08T01:10:29.365Z,99.9
2022-10-08T01:12:32.927Z,99.9
2022-10-08T01:14:36.442Z,99.9
2022-10-08T01:16:40.111Z,99.9
2022-10-08T01:18:46.643Z,99.9
2022-10-08T01:20:50.172Z,99.9
2022-10-08T01:22:53.673Z,99.9
2022-10-08T01:24:57.270Z,99.9
2022-10-08T01:27:00.786Z,99.9
2022-10-08T01:29:04.344Z,99.9
2022-10-08T01:31:07.940Z,99.9
2022-10-08T01:33:14.481Z,99.9
2022-10-08T01:35:18.047Z,99.9
2022-10-08T01:37:21.582Z,99.9
2022-10-08T01:39:51.531Z,99.9
2022-10-08T01:41:55.091Z,99.9
2022-10-08T01:43:58.639Z,99.9
2022-10-08T01:46:05.285Z,99.9
2022-10-08T01:48:08.788Z,99.9
2022-10-08T01:50:12.342Z,99.9
2022-10-08T01:52:15.867Z,99.9
2022-10-08T01:54:19.434Z,99.9
2022-10-08T01:56:22.969Z,99.9
2022-10-08T01:58:26.514Z,99.9
2022-10-08T02:00:33.105Z,99.9
2022-10-08T02:04:40.211Z,99.9
2022-10-08T02:06:43.755Z,99.9
2022-10-08T02:08:47.306Z,99.9
2022-10-08T02:10:50.850Z,99.9
2022-10-08T02:12:54.417Z,99.9
2022-10-08T02:15:01.065Z,99.9
2022-10-08T02:17:04.593Z,99.9
2022-10-08T02:19:08.160Z,99.9
2022-10-08T02:21:11.707Z,99.9
2022-10-08T02:25:18.800Z,99.9
2022-10-08T02:27:22.360Z,99.9
2022-10-08T02:29:42.093Z,99.9
2022-10-08T02:31:32.682Z,99.9
2022-10-08T02:33:36.091Z,99.9
2022-10-08T02:34:39.380Z,99.9
2022-10-08T02:36:42.954Z,99.9
2022-10-08T02:40:50.059Z,99.9
2022-10-08T02:42:56.660Z,99.9
2022-10-08T02:45:00.235Z,99.9
2022-10-08T02:47:03.755Z,99.9
2022-10-08T02:51:10.858Z,99.9
2022-10-08T02:57:24.594Z,99.9
2022-10-08T03:01:31.870Z,99.9
2022-10-08T03:05:40.333Z,99.9
2022-10-08T03:13:57.622Z,99.9
2022-10-08T03:16:01.339Z,99.9
2022-10-08T03:22:11.830Z,99.9
2022-10-08T03:24:15.406Z,99.9
2022-10-08T03:26:21.981Z,99.9
2022-10-08T03:28:25.591Z,99.9
2022-10-08T03:30:29.139Z,99.9
2022-10-08T03:31:32.428Z,99.9
2022-10-08T03:33:35.994Z,99.9
2022-10-08T03:35:40.741Z,99.9
2022-10-08T03:37:43.116Z,99.9
2022-10-08T03:39:50.451Z,99.9
2022-10-08T03:41:53.325Z,99.9
2022-10-08T03:43:56.880Z,99.9
2022-10-08T03:46:00.506Z,99.9
2022-10-08T03:48:04.000Z,99.9
2022-10-08T03:50:07.581Z,99.9
2022-10-08T03:52:11.155Z,99.9
2022-10-08T03:54:17.774Z,99.9
2022-10-08T03:56:21.312Z,99.9
2022-10-08T03:58:24.902Z,99.9
2022-10-08T04:00:28.463Z,99.9
2022-10-08T04:02:32.125Z,99.9
2022-10-08T04:04:35.583Z,99.9
2022-10-08T04:06:39.135Z,99.9
2022-10-08T04:08:45.797Z,99.9
2022-10-08T04:10:49.362Z,99.9
2022-10-08T04:12:52.932Z,99.9
2022-10-08T04:14:56.450Z,99.9
2022-10-08T04:17:00.051Z,99.9
2022-10-08T04:19:03.585Z,99.9
2022-10-08T04:21:07.142Z,99.9
2022-10-08T04:23:13.774Z,99.9
2022-10-08T04:25:17.339Z,99.9
2022-10-08T04:27:21.267Z,99.9
2022-10-08T04:28:24.276Z,99.9
2022-10-08T04:30:27.751Z,99.9
2022-10-08T04:32:31.282Z,99.9
2022-10-08T04:34:34.870Z,99.9
2022-10-08T04:36:41.515Z,99.9
2022-10-08T04:38:45.058Z,99.9
2022-10-08T04:40:48.610Z,99.9
2022-10-08T04:44:55.699Z,99.9
2022-10-08T04:49:02.775Z,99.9
2022-10-08T04:51:10.786Z,99.9
2022-10-08T04:53:13.018Z,99.9
2022-10-08T04:57:20.137Z,99.9
2022-10-08T05:03:30.777Z,99.9
2022-10-08T05:07:40.972Z,99.9
2022-10-08T05:11:48.099Z,99.9
2022-10-08T05:13:51.678Z,99.9
2022-10-08T05:15:55.290Z,99.9
2022-10-08T05:17:58.778Z,99.9
2022-10-08T05:20:05.438Z,99.9
2022-10-08T05:22:08.998Z,99.9
2022-10-08T05:24:12.555Z,99.9
2022-10-08T05:26:56.207Z,99.9
2022-10-08T05:28:34.225Z,99.9
2022-10-08T05:30:37.744Z,99.9
2022-10-08T05:32:44.770Z,99.9
2022-10-08T05:34:47.962Z,99.9
2022-10-08T05:36:51.540Z,99.9
2022-10-08T05:38:55.101Z,99.9
2022-10-08T05:40:58.683Z,99.9
2022-10-08T05:43:02.263Z,99.9
2022-10-08T05:45:05.800Z,99.9
2022-10-08T05:49:16.035Z,99.9
2022-10-08T05:51:19.579Z,99.9
2022-10-08T05:53:23.179Z,99.9
2022-10-08T05:55:26.743Z,99.9
2022-10-08T05:57:30.312Z,99.9
2022-10-08T05:59:33.882Z,99.9
2022-10-08T06:01:40.536Z,99.9
2022-10-08T06:03:44.084Z,99.9
2022-10-08T06:05:47.663Z,99.9
2022-10-08T06:07:51.217Z,99.9
2022-10-08T06:14:01.911Z,99.9
2022-10-08T06:18:12.196Z,99.9
2022-10-08T06:21:19.034Z,99.9
2022-10-08T06:23:22.643Z,99.9
2022-10-08T06:25:26.215Z,99.9
2022-10-08T06:27:29.797Z,99.9
2022-10-08T06:31:40.111Z,99.9
2022-10-08T06:33:43.612Z,99.9
2022-10-08T06:35:47.213Z,99.9
2022-10-08T06:37:50.755Z,99.9
2022-10-08T06:39:54.335Z,99.9
2022-10-08T06:44:04.575Z,99.9
2022-10-08T06:46:08.180Z,99.9
2022-10-08T06:48:11.729Z,99.9
2022-10-08T06:50:15.305Z,99.9
2022-10-08T06:52:18.882Z,99.9
2022-10-08T06:56:26.068Z,99.9
2022-10-08T06:58:32.694Z,99.9
2022-10-08T07:00:36.295Z,99.9
2022-10-08T07:02:39.894Z,99.9
2022-10-08T07:04:43.417Z,99.9
2022-10-08T07:06:46.978Z,99.9
2022-10-08T07:08:50.576Z,99.9
2022-10-08T07:10:54.112Z,99.9
2022-10-08T07:13:00.787Z,99.9
2022-10-08T07:15:04.357Z,99.9
2022-10-08T07:17:07.897Z,99.9
2022-10-08T07:18:11.202Z,99.9
2022-10-08T07:20:14.806Z,99.9
2022-10-08T07:24:21.923Z,99.9
2022-10-08T07:26:28.612Z,99.9
2022-10-08T07:28:32.207Z,99.9
2022-10-08T07:30:35.709Z,99.9
2022-10-08T07:32:39.266Z,99.9
2022-10-08T07:34:42.791Z,99.9
2022-10-08T07:38:49.908Z,99.9
2022-10-08T07:40:56.536Z,99.9
2022-10-08T07:43:00.091Z,99.9
2022-10-08T07:45:03.624Z,99.9
2022-10-08T07:47:07.153Z,99.9
2022-10-08T07:49:10.679Z,99.9
2022-10-08T07:51:14.221Z,99.9
2022-10-08T07:53:17.731Z,99.9
2022-10-08T07:59:31.413Z,99.9
2022-10-08T08:01:34.899Z,99.9
2022-10-08T08:03:38.424Z,99.9
2022-10-08T08:05:41.968Z,99.9
2022-10-08T08:07:47.554Z,99.9
2022-10-08T08:09:52.073Z,99.9
2022-10-08T08:11:55.572Z,99.9
2022-10-08T08:13:59.078Z,99.9
2022-10-08T08:19:09.390Z,99.9
2022-10-08T08:21:12.842Z,99.9
2022-10-08T08:23:19.488Z,99.9
2022-10-08T08:25:22.984Z,99.9
2022-10-08T08:27:26.463Z,99.9
2022-10-08T08:29:29.962Z,99.9
2022-10-08T08:31:33.547Z,99.9
2022-10-08T08:33:36.994Z,99.9
2022-10-08T08:35:40.475Z,99.9
2022-10-08T08:37:47.060Z,99.9
2022-10-08T08:39:50.543Z,99.9
2022-10-08T08:43:57.542Z,99.9
2022-10-08T08:46:01.141Z,99.9
2022-10-08T08:48:04.561Z,99.9
2022-10-08T08:52:14.671Z,99.9
2022-10-08T08:54:18.187Z,99.9
2022-10-08T08:56:21.690Z,99.9
2022-10-08T09:02:33.795Z,99.9
2022-10-08T09:04:39.534Z,99.9
2022-10-08T09:06:43.751Z,99.9
2022-10-08T09:08:47.283Z,99.9
2022-10-08T09:10:50.774Z,99.9
2022-10-08T09:13:14.921Z,99.9
2022-10-08T09:15:18.422Z,99.9
2022-10-08T09:17:21.979Z,99.9
2022-10-08T09:19:28.538Z,99.9
2022-10-08T09:21:32.014Z,99.9
2022-10-08T09:23:35.500Z,99.9
2022-10-08T09:25:39.009Z,99.9
2022-10-08T09:27:42.474Z,99.9
2022-10-08T09:29:45.963Z,99.9
2022-10-08T09:31:49.435Z,99.9
2022-10-08T09:33:56.026Z,99.9
2022-10-08T09:35:59.526Z,99.9
2022-10-08T09:38:05.879Z,99.9
2022-10-08T09:40:06.476Z,99.9
2022-10-08T09:42:09.948Z,99.9
2022-10-08T09:44:13.433Z,99.9
2022-10-08T09:46:16.923Z,99.9
2022-10-08T09:48:23.438Z,99.9
2022-10-08T09:50:26.911Z,99.9
2022-10-08T09:52:30.383Z,99.9
2022-10-08T09:54:33.799Z,99.9
2022-10-08T09:56:37.251Z,99.9
2022-10-08T09:58:40.701Z,99.9
2022-10-08T10:00:44.149Z,99.9
2022-10-08T10:02:50.676Z,99.9
2022-10-08T10:06:57.552Z,99.9
2022-10-08T10:08:00.805Z,99.9
2022-10-08T10:10:04.250Z,99.9
2022-10-08T10:18:20.988Z,99.9
2022-10-08T10:26:34.661Z,99.9
2022-10-08T10:28:38.066Z,99.9
2022-10-08T10:30:44.573Z,99.9
2022-10-08T10:34:51.369Z,99.9
2022-10-08T10:38:58.088Z,99.9
2022-10-08T10:41:01.486Z,99.9
2022-10-08T10:43:04.798Z,99.9
2022-10-08T10:45:11.254Z,99.9
2022-10-08T10:51:21.380Z,99.9
2022-10-08T10:53:24.759Z,99.9
2022-10-08T10:57:31.449Z,99.9
2022-10-08T11:01:41.092Z,99.9
2022-10-08T11:04:47.393Z,99.9
2022-10-08T11:06:50.642Z,99.9
2022-10-08T11:08:53.911Z,99.9
2022-10-08T11:10:57.126Z,99.4
2022-10-08T11:13:03.387Z,99.4
2022-10-08T11:15:06.609Z,99.4
2022-10-08T11:17:09.792Z,99.4
2022-10-08T11:19:12.968Z,99.5
2022-10-08T11:21:16.173Z,99.9
2022-10-08T11:23:19.394Z,99.9
2022-10-08T11:25:22.625Z,99.9
2022-10-08T11:27:28.975Z,99.9
2022-10-08T11:29:32.230Z,99.9
2022-10-08T11:33:38.947Z,99.9
2022-10-08T11:35:42.279Z,99.9
2022-10-08T11:43:58.676Z,99.9
2022-10-08T11:46:01.936Z,99.9
2022-10-08T11:48:09.688Z,99.9
2022-10-08T11:50:08.378Z,99.9
2022-10-08T11:52:11.633Z,99.9
2022-10-08T11:54:14.896Z,99.9
2022-10-08T11:56:21.290Z,99.9
2022-10-08T12:00:27.815Z,99.9
2022-10-08T12:01:31.075Z,99.9
2022-10-08T12:03:34.491Z,99.9
2022-10-08T12:05:37.737Z,99.9
2022-10-08T12:07:41.166Z,99.9
2022-10-08T12:09:47.609Z,99.9
2022-10-08T12:11:51.017Z,99.9
2022-10-08T12:13:54.325Z,99.9
2022-10-08T12:15:57.808Z,99.9
2022-10-08T12:18:01.200Z,99.9
2022-10-08T12:20:04.605Z,99.9
2022-10-08T12:22:08.032Z,99.2
2022-10-08T12:24:14.591Z,99.2
2022-10-08T12:26:18.038Z,99
2022-10-08T12:28:21.561Z,99
2022-10-08T12:32:28.296Z,99.5
2022-10-08T12:36:35.147Z,94.8
2022-10-08T12:38:41.678Z,91.2
2022-10-08T12:40:45.114Z,89.1
2022-10-08T12:42:48.561Z,89.4
2022-10-08T12:44:52.003Z,89
2022-10-08T12:46:55.462Z,91
2022-10-08T12:48:58.879Z,95.4
2022-10-08T12:51:02.308Z,95.5
2022-10-08T12:53:08.855Z,96.7
2022-10-08T13:01:37.435Z,93.6
2022-10-08T13:03:40.786Z,93.4
2022-10-08T13:05:47.399Z,93.4
2022-10-08T13:07:50.939Z,77.1
2022-10-08T13:09:54.238Z,82.8
2022-10-08T13:12:02.921Z,83
2022-10-08T13:14:01.122Z,75.9
2022-10-08T13:16:04.672Z,69.1
2022-10-08T13:18:08.061Z,69.8
2022-10-08T13:20:14.612Z,72.2
2022-10-08T13:22:18.071Z,76.2
2022-10-08T13:24:21.498Z,76
2022-10-08T13:26:24.966Z,81.9
2022-10-08T13:28:55.868Z,82.2
2022-10-08T13:30:31.925Z,83.5
2022-10-08T13:32:35.374Z,83.3
2022-10-08T13:34:41.848Z,90.7
2022-10-08T13:38:48.714Z,91.6
2022-10-08T13:40:53.095Z,95.2
2022-10-08T13:42:56.546Z,97.3
2022-10-08T13:45:00.014Z,98.5
2022-10-08T13:47:04.029Z,98.7
2022-10-08T13:49:10.015Z,99.6
2022-10-08T13:51:13.510Z,99.6
2022-10-08T13:53:16.926Z,99.9
2022-10-08T13:54:20.239Z,99.9
2022-10-08T13:56:23.721Z,99.9
2022-10-08T13:58:27.173Z,99.9
2022-10-08T14:00:30.686Z,99.9
2022-10-08T14:02:37.248Z,99.9
2022-10-08T14:04:40.701Z,99.9
2022-10-08T14:06:44.212Z,98.6
2022-10-08T14:08:47.670Z,91.3
2022-10-08T14:10:51.122Z,91.4
2022-10-08T14:14:58.040Z,94.4
2022-10-08T14:19:12.042Z,98.3
2022-10-08T14:21:11.509Z,98.9
2022-10-08T14:23:14.967Z,99.4
2022-10-08T14:25:18.426Z,99.5
2022-10-08T14:27:21.867Z,99.9
2022-10-08T14:29:25.333Z,99.8
2022-10-08T14:33:35.345Z,99.8
2022-10-08T14:35:38.788Z,99.8
2022-10-08T14:37:42.244Z,99.8
2022-10-08T14:39:45.799Z,99.9
2022-10-08T14:41:49.165Z,99.9
2022-10-08T14:43:52.630Z,99.9
2022-10-08T14:45:59.203Z,99.9
2022-10-08T14:48:02.604Z,99.9
2022-10-08T14:50:06.022Z,99.9
2022-10-08T14:51:09.222Z,99.9
2022-10-08T14:53:12.676Z,99.9
2022-10-08T14:59:27.621Z,99.9
2022-10-08T15:01:31.096Z,99.9
2022-10-08T15:03:34.625Z,99.9
2022-10-08T15:05:37.987Z,99.9
2022-10-08T15:07:41.428Z,99.9
2022-10-08T15:11:48.335Z,99.9
2022-10-08T15:13:54.894Z,99.9
2022-10-08T15:15:58.488Z,99.9
2022-10-08T15:18:01.930Z,99.9
2022-10-08T15:20:05.451Z,99.9
2022-10-08T15:22:08.737Z,99.9
2022-10-08T15:24:12.217Z,99.9
2022-10-08T15:26:15.647Z,99.9
2022-10-08T15:28:22.285Z,99.9
2022-10-08T15:32:30.645Z,99.9
2022-10-08T15:38:39.521Z,99.9
2022-10-08T15:40:42.972Z,99.9
2022-10-08T15:42:49.819Z,99.9
2022-10-08T15:44:53.056Z,99.9
2022-10-08T15:46:59.382Z,99.9
2022-10-08T15:54:10.279Z,99.9
2022-10-08T16:08:37.729Z,99.9
2022-10-08T16:10:44.283Z,99.9
2022-10-08T16:12:48.039Z,99.9
2022-10-08T16:14:51.334Z,99.9
2022-10-08T16:16:54.864Z,99.9
2022-10-08T16:18:58.459Z,99.9
2022-10-08T16:21:01.819Z,99.9
2022-10-08T16:23:05.350Z,99.9
2022-10-08T16:25:11.917Z,99.9
2022-10-08T16:27:15.429Z,99.9
2022-10-08T16:29:18.922Z,99.9
2022-10-08T16:31:22.389Z,99.9
2022-10-08T16:33:25.890Z,99.9
2022-10-08T16:35:29.388Z,99.9
2022-10-08T16:37:32.922Z,99.9
2022-10-08T16:39:39.529Z,99.9
2022-10-08T16:41:43.040Z,99.9
2022-10-08T16:43:46.540Z,99.9
2022-10-08T16:46:04.907Z,99.9
2022-10-08T16:48:08.336Z,99.9
2022-10-08T16:50:11.841Z,99.9
2022-10-08T16:52:18.470Z,99.9
2022-10-08T16:54:21.965Z,99.9
2022-10-08T16:56:25.512Z,99.9
2022-10-08T16:58:29.008Z,99.9
2022-10-08T17:00:32.537Z,99.9
2022-10-08T17:02:36.097Z,99.9
2022-10-08T17:06:46.201Z,99.9
2022-10-08T17:08:49.745Z,99.9
2022-10-08T17:10:53.257Z,99.9
2022-10-08T17:12:56.812Z,99.9
2022-10-08T17:15:00.356Z,99.9
2022-10-08T17:17:03.915Z,99.9
2022-10-08T17:19:07.443Z,99.9
2022-10-08T17:21:14.053Z,99.9
2022-10-08T17:23:17.596Z,99.9
2022-10-08T17:27:24.688Z,99.9
2022-10-08T17:29:28.207Z,99.9
2022-10-08T17:31:31.761Z,99.9
2022-10-08T17:33:36.079Z,99.9
2022-10-08T17:35:41.909Z,99.9
2022-10-08T17:37:45.433Z,99.9
2022-10-08T17:40:52.909Z,99.9
2022-10-08T17:42:56.427Z,99.9
2022-10-08T17:44:59.955Z,99.9
2022-10-08T17:47:03.471Z,99.9
2022-10-08T17:49:10.114Z,99.9
2022-10-08T17:51:13.639Z,99.9
2022-10-08T17:53:17.200Z,99.9
2022-10-08T17:55:20.727Z,99.9
2022-10-08T17:57:24.235Z,99.9
2022-10-08T17:59:27.770Z,99.9
2022-10-08T18:01:31.440Z,99.9
2022-10-08T18:03:37.953Z,99.9
2022-10-08T18:05:41.501Z,99.9
2022-10-08T18:09:48.590Z,99.9
2022-10-08T18:11:52.182Z,99.9
2022-10-08T18:13:55.699Z,99.9
2022-10-08T18:15:59.343Z,99.9
2022-10-08T18:20:09.443Z,99.9
2022-10-08T18:26:20.133Z,99.9
2022-10-08T18:28:23.674Z,99.9
2022-10-08T18:36:40.992Z,99.9
2022-10-08T18:37:44.314Z,99.9
2022-10-08T18:41:51.453Z,99.9
2022-10-08T18:43:55.028Z,99.9
2022-10-08T18:46:01.684Z,99.9
2022-10-08T18:48:05.199Z,99.9
2022-10-08T18:50:08.772Z,99.9
2022-10-08T18:52:12.356Z,99.9
2022-10-08T18:54:15.887Z,99.9
2022-10-08T18:56:19.507Z,99.9
2022-10-08T18:58:23.086Z,99.9
2022-10-08T19:00:29.705Z,99.9
2022-10-08T19:06:40.391Z,99.9
2022-10-08T19:08:43.981Z,99.9
2022-10-08T19:10:47.559Z,99.9
2022-10-08T19:12:51.227Z,99.9
2022-10-08T19:21:08.512Z,99.9
2022-10-08T19:25:15.675Z,99.9
2022-10-08T19:27:19.243Z,99.9
2022-10-08T19:34:36.450Z,99.9
2022-10-08T19:36:40.006Z,99.9
2022-10-08T19:38:43.597Z,99.9
2022-10-08T19:40:47.214Z,99.9
2022-10-08T19:42:53.877Z,99.9
2022-10-08T19:44:57.440Z,99.9
2022-10-08T19:49:04.682Z,99.9
2022-10-08T19:51:08.283Z,99.9
2022-10-08T19:53:11.848Z,99.9
2022-10-08T19:55:15.465Z,99.9
2022-10-08T19:57:22.139Z,99.9
2022-10-08T19:59:25.749Z,99.9
2022-10-08T20:01:29.388Z,99.9
2022-10-08T20:03:32.931Z,99.9
2022-10-08T20:05:36.562Z,99.9
2022-10-08T20:07:40.139Z,99.9
2022-10-08T20:09:43.729Z,99.9
2022-10-08T20:11:50.429Z,99.9
2022-10-08T20:13:54.034Z,99.9
2022-10-08T20:15:57.680Z,99.9
2022-10-08T20:18:01.290Z,99.9
2022-10-08T20:22:11.534Z,99.9
2022-10-08T20:24:12.050Z,99.9
2022-10-08T20:26:18.743Z,99.9
2022-10-08T20:32:50.639Z,99.9
2022-10-08T20:34:53.835Z,99.9
2022-10-08T20:39:04.114Z,99.9
2022-10-08T20:43:11.281Z,99.9
2022-10-08T20:45:14.933Z,99.9
2022-10-08T20:49:22.097Z,99.9
2022-10-08T20:51:25.725Z,99.9
2022-10-08T20:53:34.614Z,99.9
2022-10-08T20:55:38.235Z,99.9
2022-10-08T20:57:41.843Z,99.9
2022-10-08T20:59:45.455Z,99.9
2022-10-08T21:01:49.227Z,99.9
2022-10-08T21:03:52.704Z,99.9
2022-10-08T21:05:56.325Z,99.9
2022-10-08T21:08:03.010Z,99.9
2022-10-08T21:10:06.601Z,99.9
2022-10-08T21:12:10.216Z,99.9
2022-10-08T21:16:17.562Z,99.9
2022-10-08T21:18:21.107Z,99.9
2022-10-08T21:20:24.687Z,99.9
2022-10-08T21:22:31.397Z,99.9
2022-10-08T21:26:38.636Z,99.9
2022-10-08T21:31:49.236Z,99.9
2022-10-08T21:38:03.140Z,99.9
2022-10-08T21:40:07.578Z,99.9
2022-10-08T21:42:11.214Z,99.9
2022-10-08T21:44:14.844Z,99.9
2022-10-08T21:46:18.501Z,99.9
2022-10-08T21:48:22.056Z,99.9
2022-10-08T21:50:31.080Z,99.9
2022-10-08T21:52:32.395Z,99.9
2022-10-08T21:54:36.021Z,99.9
2022-10-08T21:56:39.629Z,99.9
2022-10-08T21:58:43.242Z,99.9
2022-10-08T22:00:46.908Z,99.9
2022-10-08T22:02:50.828Z,99.9
2022-10-08T22:04:57.155Z,99.9
2022-10-08T22:21:29.227Z,99.9
2022-10-08T22:23:32.858Z,99.9
2022-10-08T22:26:39.770Z,99.9
2022-10-08T22:28:43.490Z,99.9
2022-10-08T22:30:47.023Z,99.9
2022-10-08T22:32:53.724Z,99.9
2022-10-08T22:34:57.356Z,99.9
2022-10-08T22:41:08.217Z,99.9
2022-10-08T22:43:11.863Z,99.9
2022-10-08T22:45:15.500Z,99.9
2022-10-08T22:47:22.196Z,99.9
2022-10-08T22:49:25.824Z,99.9
2022-10-08T22:51:29.452Z,99.9
2022-10-08T22:53:33.069Z,99.9
2022-10-08T22:55:36.745Z,99.9
2022-10-08T22:57:40.352Z,99.9
2022-10-08T22:59:44.007Z,99.9
2022-10-08T23:01:50.818Z,99.9
2022-10-08T23:03:54.326Z,99.9
2022-10-08T23:05:57.975Z,99.9
2022-10-08T23:08:01.626Z,99.9
2022-10-08T23:10:05.226Z,99.9
2022-10-08T23:12:08.863Z,99.9
2022-10-08T23:14:12.490Z,99.9
2022-10-08T23:16:19.272Z,99.9
2022-10-08T23:18:22.836Z,99.9
2022-10-08T23:20:26.436Z,99.9
2022-10-08T23:21:29.801Z,99.9
2022-10-08T23:23:33.404Z,99.9
2022-10-08T23:25:37.042Z,99.9
2022-10-08T23:27:40.692Z,99.9
2022-10-08T23:29:47.514Z,99.9
2022-10-08T23:31:51.096Z,99.9
2022-10-08T23:33:54.673Z,99.9
2022-10-08T23:35:58.264Z,99.9
2022-10-08T23:38:01.891Z,99.9
2022-10-08T23:42:09.183Z,99.9
2022-10-08T23:46:19.597Z,99.9
2022-10-08T23:50:26.785Z,99.9
2022-10-08T23:52:30.447Z,99.9
2022-10-08T23:56:37.703Z,99.9
2022-10-08T23:58:44.409Z,99.9
